ENST

Sandnessjøen , Stokka Airport

Alstahaug, Norway
METAR ENST 230850Z 36006KT 9999 FEW030 09/02 Q1030 RMK WIND 300FT 36006KT
Observed Flight Rules
May-23 @ 08:50 UTC (17 minutes ago) Visual Flight Rules
Wind Visibility Clouds
360° at 6 knots 10,000+ meters
  • Few at 3,000' AGL
Temperatures Readings
Current 9°C / 48°F
Dewpoint 2°C / 36°F
Humidity 62%
Altimeter 30.41" Hg
Pressure 1030 hPa
Elevation 17
METAR ENST 230850Z 36006KT 9999 FEW030 09/02 Q1030 RMK WIND 300FT 36006KT
Observed Flight Rules
May-23 @ 08:50 UTC
(17 minutes ago)
VFR
Wind Visibility
360° at 6 knots 10,000+ meters
Clouds
  • Few at 3,000' AGL
Temperature Dewpoint
9°C / 48°F 2°C / 36°F
Humidity Altimeter Pressure
62% 30.41" Hg 1030 hPa